createdAt,value
2022-12-16T00:01:24.615Z,6.07
2022-12-16T00:03:54.921Z,5.50
2022-12-16T00:06:24.404Z,6.23
2022-12-16T00:08:52.967Z,5.63
2022-12-16T00:11:23.546Z,5.70
2022-12-16T00:13:51.953Z,5.53
2022-12-16T00:16:21.556Z,5.53
2022-12-16T00:18:51.774Z,5.40
2022-12-16T00:21:20.701Z,4.93
2022-12-16T00:23:49.417Z,5.03
2022-12-16T00:26:17.914Z,4.80
2022-12-16T00:28:47.796Z,5.00
2022-12-16T00:31:16.225Z,5.07
2022-12-16T00:33:44.660Z,4.90
2022-12-16T00:36:13.044Z,5.07
2022-12-16T00:38:41.462Z,5.13
2022-12-16T00:41:09.866Z,4.60
2022-12-16T00:43:38.284Z,4.60
2022-12-16T00:46:08.736Z,4.80
2022-12-16T00:48:37.209Z,4.23
2022-12-16T00:51:05.778Z,4.50
2022-12-16T00:53:34.545Z,4.70
2022-12-16T00:56:03.714Z,4.53
2022-12-16T00:58:32.135Z,4.57
2022-12-16T01:01:00.642Z,4.50
2022-12-16T01:03:30.576Z,4.33
2022-12-16T01:05:59.101Z,4.27
2022-12-16T01:08:27.555Z,4.50
2022-12-16T01:10:56.965Z,4.07
2022-12-16T01:13:25.788Z,4.53
2022-12-16T01:15:54.736Z,4.30
2022-12-16T01:18:23.195Z,4.00
2022-12-16T01:20:52.952Z,3.87
2022-12-16T01:23:23.638Z,3.40
2022-12-16T01:25:54.400Z,3.80
2022-12-16T01:28:23.765Z,3.57
2022-12-16T01:30:57.200Z,3.80
2022-12-16T01:33:25.661Z,3.50
2022-12-16T01:36:01.484Z,3.30
2022-12-16T01:38:29.928Z,3.53
2022-12-16T01:40:58.645Z,3.13
2022-12-16T01:43:28.160Z,3.43
2022-12-16T01:46:00.622Z,3.67
2022-12-16T01:48:43.103Z,3.30
2022-12-16T01:51:15.785Z,3.20
2022-12-16T01:53:44.871Z,3.00
2022-12-16T01:56:15.032Z,3.20
2022-12-16T01:58:44.497Z,3.07
2022-12-16T02:01:12.993Z,2.90
2022-12-16T02:03:41.484Z,3.43
2022-12-16T02:06:09.940Z,3.13
2022-12-16T02:08:39.762Z,2.90
2022-12-16T02:11:16.920Z,3.53
2022-12-16T02:13:54.708Z,3.13
2022-12-16T02:16:26.101Z,3.60
2022-12-16T02:18:57.596Z,3.30
2022-12-16T02:21:30.368Z,3.10
2022-12-16T02:24:10.815Z,3.37
2022-12-16T02:26:54.561Z,3.23
2022-12-16T02:29:38.934Z,3.20
2022-12-16T02:32:11.459Z,3.40
2022-12-16T02:34:44.376Z,3.40
2022-12-16T02:37:16.440Z,3.50
2022-12-16T02:39:46.734Z,3.30
2022-12-16T02:42:18.400Z,3.70
2022-12-16T02:44:50.806Z,3.60
2022-12-16T02:47:20.605Z,3.73
2022-12-16T02:49:50.386Z,4.23
2022-12-16T02:52:20.613Z,3.73
2022-12-16T02:54:49.954Z,3.70
2022-12-16T02:57:25.172Z,4.17
2022-12-16T02:59:59.253Z,4.20
2022-12-16T03:02:32.866Z,4.10
2022-12-16T03:05:04.779Z,4.50
2022-12-16T03:07:34.692Z,4.30
2022-12-16T03:10:04.380Z,4.47
2022-12-16T03:12:33.173Z,4.37
2022-12-16T03:15:02.081Z,4.13
2022-12-16T03:17:32.441Z,4.10
2022-12-16T03:20:06.027Z,4.47
2022-12-16T03:22:36.281Z,4.17
2022-12-16T03:25:05.561Z,4.70
2022-12-16T03:27:37.612Z,4.90
2022-12-16T03:30:07.770Z,4.37
2022-12-16T03:32:39.320Z,4.30
2022-12-16T03:35:12.131Z,4.17
2022-12-16T03:37:42.004Z,5.00
2022-12-16T03:40:11.736Z,5.37
2022-12-16T03:42:41.221Z,5.10
2022-12-16T03:45:11.447Z,6.40
2022-12-16T03:47:41.316Z,6.23
2022-12-16T03:50:09.999Z,6.03
2022-12-16T03:52:38.481Z,6.07
2022-12-16T03:55:07.002Z,5.97
2022-12-16T03:57:35.397Z,5.63
2022-12-16T04:00:03.930Z,5.90
2022-12-16T04:02:32.526Z,5.90
2022-12-16T04:05:02.517Z,5.90
2022-12-16T04:07:31.220Z,6.00
2022-12-16T04:09:59.653Z,5.70
2022-12-16T04:12:48.152Z,5.63
2022-12-16T04:15:34.037Z,5.80
2022-12-16T04:18:20.265Z,5.90
2022-12-16T04:21:10.922Z,5.60
2022-12-16T04:24:01.470Z,6.53
2022-12-16T04:26:30.572Z,6.73
2022-12-16T04:28:59.143Z,7.80
2022-12-16T04:31:27.635Z,8.67
2022-12-16T04:34:13.528Z,10.13
2022-12-16T04:37:01.019Z,11.00
2022-12-16T04:39:47.147Z,11.70
2022-12-16T04:42:33.008Z,11.63
2022-12-16T04:45:19.088Z,10.50
2022-12-16T04:48:04.965Z,11.10
2022-12-16T04:50:51.121Z,11.40
2022-12-16T04:53:38.197Z,11.03
2022-12-16T04:56:24.442Z,10.30
2022-12-16T04:59:09.947Z,10.73
2022-12-16T05:01:55.658Z,11.53
2022-12-16T05:04:41.330Z,11.40
2022-12-16T05:07:27.163Z,12.13
2022-12-16T05:10:14.203Z,12.20
2022-12-16T05:12:59.822Z,12.17
2022-12-16T05:15:45.613Z,12.37
2022-12-16T05:18:32.561Z,13.63
2022-12-16T05:21:19.107Z,13.63
2022-12-16T05:24:05.104Z,12.97
2022-12-16T05:26:52.623Z,13.27
2022-12-16T05:29:38.656Z,13.53
2022-12-16T05:32:24.803Z,14.73
2022-12-16T05:35:10.682Z,15.67
2022-12-16T05:37:56.754Z,14.77
2022-12-16T05:40:42.735Z,17.60
2022-12-16T05:43:32.799Z,19.13
2022-12-16T05:46:19.178Z,20.47
2022-12-16T05:49:05.281Z,20.07
2022-12-16T05:51:51.040Z,22.03
2022-12-16T05:54:36.981Z,22.70
2022-12-16T05:57:22.887Z,23.50
2022-12-16T06:00:10.425Z,23.40
2022-12-16T06:02:56.447Z,23.80
2022-12-16T06:05:42.742Z,22.53
2022-12-16T06:08:28.585Z,23.93
2022-12-16T06:11:14.749Z,24.27
2022-12-16T06:13:59.761Z,24.63
2022-12-16T06:16:47.353Z,25.40
2022-12-16T06:19:33.139Z,25.87
2022-12-16T06:22:18.974Z,26.80
2022-12-16T06:25:04.992Z,26.70
2022-12-16T06:27:51.235Z,28.57
2022-12-16T06:30:37.290Z,27.40
2022-12-16T06:33:24.997Z,28.37
2022-12-16T06:36:13.096Z,26.13
2022-12-16T06:38:59.134Z,24.97
2022-12-16T06:41:45.341Z,31.67
2022-12-16T06:44:31.477Z,25.77
2022-12-16T06:47:17.408Z,31.03
2022-12-16T06:50:04.939Z,30.33
2022-12-16T06:52:50.852Z,26.17
2022-12-16T06:55:37.026Z,34.17
2022-12-16T06:58:22.937Z,26.80
2022-12-16T07:01:11.141Z,33.93
2022-12-16T07:03:56.980Z,35.83
2022-12-16T07:06:44.281Z,24.63
2022-12-16T07:09:30.374Z,32.83
2022-12-16T07:12:16.526Z,29.23
2022-12-16T07:15:02.456Z,30.60
2022-12-16T07:17:48.615Z,34.27
2022-12-16T07:20:34.613Z,26.87
2022-12-16T07:23:34.009Z,33.47
2022-12-16T07:26:20.024Z,29.17
2022-12-16T07:29:05.936Z,28.70
2022-12-16T07:31:51.745Z,32.33
2022-12-16T07:34:41.439Z,27.57
2022-12-16T07:37:28.788Z,30.60
2022-12-16T07:40:16.342Z,30.80
2022-12-16T07:43:02.632Z,27.30
2022-12-16T07:45:48.915Z,30.10
2022-12-16T07:48:35.095Z,29.03
2022-12-16T07:51:21.170Z,31.00
2022-12-16T07:54:12.583Z,32.17
2022-12-16T07:57:00.329Z,34.67
2022-12-16T07:59:46.416Z,34.57
2022-12-16T08:02:32.357Z,33.97
2022-12-16T08:05:18.790Z,32.90
2022-12-16T08:08:04.881Z,33.20
2022-12-16T08:10:50.766Z,31.50
2022-12-16T08:13:38.591Z,32.00
2022-12-16T08:16:25.319Z,32.33
2022-12-16T08:19:11.628Z,35.07
2022-12-16T08:21:58.069Z,34.30
2022-12-16T08:24:49.732Z,32.93
2022-12-16T08:27:39.509Z,35.27
2022-12-16T08:30:28.140Z,32.87
2022-12-16T08:33:19.265Z,34.63
2022-12-16T08:36:20.859Z,34.07
2022-12-16T08:39:06.878Z,34.43
2022-12-16T08:42:00.958Z,34.27
2022-12-16T08:44:46.835Z,34.43
2022-12-16T08:47:34.437Z,34.90
2022-12-16T08:50:20.568Z,35.77
2022-12-16T08:53:06.648Z,34.57
2022-12-16T08:55:55.728Z,37.07
2022-12-16T08:58:42.360Z,34.27
2022-12-16T09:01:28.265Z,34.57
2022-12-16T09:04:15.866Z,36.00
2022-12-16T09:07:16.443Z,27.73
2022-12-16T09:10:02.051Z,24.27
2022-12-16T09:12:48.136Z,34.13
2022-12-16T09:15:34.249Z,35.83
2022-12-16T09:18:20.360Z,36.43
2022-12-16T09:21:07.922Z,35.97
2022-12-16T09:23:53.832Z,38.73
2022-12-16T09:26:40.257Z,37.93
2022-12-16T09:29:22.622Z,38.20
2022-12-16T09:32:08.797Z,39.03
2022-12-16T09:34:54.842Z,38.43
2022-12-16T09:37:56.914Z,34.90
2022-12-16T09:40:42.896Z,35.57
2022-12-16T09:43:32.529Z,37.70
2022-12-16T09:46:21.940Z,39.50
2022-12-16T09:49:11.206Z,41.07
2022-12-16T09:51:58.684Z,41.23
2022-12-16T09:54:48.391Z,38.97
2022-12-16T09:57:35.022Z,33.80
2022-12-16T10:00:24.688Z,37.47
2022-12-16T10:03:10.649Z,37.97
2022-12-16T10:06:03.229Z,36.47
2022-12-16T10:08:53.722Z,37.13
2022-12-16T10:11:43.364Z,36.50
2022-12-16T10:14:32.043Z,35.07
2022-12-16T10:17:23.484Z,35.13
2022-12-16T10:20:11.767Z,35.67
2022-12-16T10:23:05.023Z,33.73
2022-12-16T10:25:54.876Z,32.53
2022-12-16T10:28:50.659Z,31.20
2022-12-16T10:31:36.454Z,32.73
2022-12-16T10:34:23.021Z,34.97
2022-12-16T10:37:14.239Z,38.27
2022-12-16T10:40:04.485Z,38.97
2022-12-16T10:42:52.096Z,39.80
2022-12-16T10:45:42.778Z,47.63
2022-12-16T10:48:30.214Z,41.33
2022-12-16T10:51:18.783Z,42.67
2022-12-16T10:54:06.004Z,40.90
2022-12-16T10:57:01.634Z,42.20
2022-12-16T10:59:54.361Z,43.77
2022-12-16T11:02:44.294Z,50.80
2022-12-16T11:05:42.873Z,44.60
2022-12-16T11:08:42.017Z,41.77
2022-12-16T11:11:32.314Z,41.20
2022-12-16T11:14:35.183Z,40.03
2022-12-16T11:17:38.086Z,51.97
2022-12-16T11:20:27.825Z,44.43
2022-12-16T11:23:26.829Z,40.97
2022-12-16T11:26:31.767Z,41.67
2022-12-16T11:29:38.269Z,40.70
2022-12-16T11:32:28.438Z,53.47
2022-12-16T11:35:15.610Z,44.50
2022-12-16T11:38:03.880Z,40.43
2022-12-16T11:40:50.975Z,39.73
2022-12-16T11:43:37.870Z,38.43
2022-12-16T11:46:28.182Z,53.40
2022-12-16T11:49:21.894Z,44.87
2022-12-16T11:52:35.464Z,41.57
2022-12-16T11:55:35.962Z,40.37
2022-12-16T11:58:34.960Z,41.17
2022-12-16T12:01:23.077Z,56.37
2022-12-16T12:04:10.189Z,43.87
2022-12-16T12:07:05.280Z,42.83
2022-12-16T12:09:54.814Z,44.03
2022-12-16T12:12:46.073Z,42.17
2022-12-16T12:15:37.594Z,56.50
2022-12-16T12:18:27.824Z,43.70
2022-12-16T12:21:16.441Z,43.13
2022-12-16T12:24:13.358Z,43.50
2022-12-16T12:27:03.626Z,42.27
2022-12-16T12:29:53.113Z,65.23
2022-12-16T12:32:41.597Z,44.13
2022-12-16T12:35:36.659Z,42.30
2022-12-16T12:38:27.154Z,41.70
2022-12-16T12:41:15.616Z,40.77
2022-12-16T12:44:08.818Z,63.20
2022-12-16T12:46:59.039Z,42.37
2022-12-16T12:49:48.203Z,42.50
2022-12-16T12:52:42.186Z,40.53
2022-12-16T12:55:30.181Z,45.20
2022-12-16T12:58:17.733Z,64.30
2022-12-16T13:01:06.739Z,43.83
2022-12-16T13:03:57.519Z,42.33
2022-12-16T13:06:43.983Z,66.53
2022-12-16T13:09:43.892Z,47.33
2022-12-16T13:12:40.718Z,43.67
2022-12-16T13:15:27.126Z,61.00
2022-12-16T13:18:31.587Z,53.23
2022-12-16T13:21:19.047Z,44.50
2022-12-16T13:24:05.358Z,44.10
2022-12-16T13:26:52.964Z,66.20
2022-12-16T13:29:40.057Z,43.90
2022-12-16T13:32:35.853Z,43.57
2022-12-16T13:35:23.329Z,69.40
2022-12-16T13:38:14.183Z,48.87
2022-12-16T13:41:17.983Z,44.73
2022-12-16T13:44:06.169Z,64.10
2022-12-16T13:47:02.913Z,55.17
2022-12-16T13:50:00.542Z,48.30
2022-12-16T13:52:50.947Z,46.50
2022-12-16T13:55:40.593Z,94.47
2022-12-16T13:58:32.717Z,46.90
2022-12-16T14:01:35.265Z,45.37
2022-12-16T14:04:21.404Z,84.83
2022-12-16T14:07:08.842Z,48.10
2022-12-16T14:09:55.705Z,46.10
2022-12-16T14:12:59.452Z,52.47
2022-12-16T14:15:48.667Z,55.63
2022-12-16T14:18:43.586Z,46.63
2022-12-16T14:21:33.273Z,45.93
2022-12-16T14:24:20.685Z,72.93
2022-12-16T14:27:06.901Z,48.40
2022-12-16T14:29:52.855Z,45.90
2022-12-16T14:32:45.015Z,72.30
2022-12-16T14:35:31.971Z,53.63
2022-12-16T14:38:17.959Z,46.97
2022-12-16T14:41:10.215Z,45.20
2022-12-16T14:43:56.267Z,79.33
2022-12-16T14:46:46.784Z,49.77
2022-12-16T14:49:39.516Z,45.97
2022-12-16T14:52:35.228Z,72.50
2022-12-16T14:55:30.604Z,49.47
2022-12-16T14:58:24.410Z,49.50
2022-12-16T15:01:15.508Z,77.37
2022-12-16T15:04:03.542Z,49.77
2022-12-16T15:06:52.404Z,47.93
2022-12-16T15:09:43.737Z,79.60
2022-12-16T15:12:31.836Z,49.60
2022-12-16T15:15:18.576Z,45.90
2022-12-16T15:18:07.301Z,78.03
2022-12-16T15:20:54.859Z,49.00
2022-12-16T15:23:43.840Z,45.77
2022-12-16T15:26:36.104Z,71.87
2022-12-16T15:29:22.013Z,46.57
2022-12-16T15:32:08.046Z,42.33
2022-12-16T15:35:06.215Z,71.07
2022-12-16T15:38:00.662Z,45.80
2022-12-16T15:40:52.384Z,41.80
2022-12-16T15:43:40.537Z,67.30
2022-12-16T15:46:35.286Z,46.83
2022-12-16T15:49:21.554Z,42.00
2022-12-16T15:52:10.775Z,62.27
2022-12-16T15:55:09.101Z,46.90
2022-12-16T15:57:56.932Z,59.83
2022-12-16T16:00:43.968Z,75.77
2022-12-16T16:03:41.274Z,50.83
2022-12-16T16:06:45.228Z,55.37
2022-12-16T16:09:31.711Z,52.20
2022-12-16T16:12:17.422Z,63.97
2022-12-16T16:15:05.071Z,57.47
2022-12-16T16:17:51.212Z,51.83
2022-12-16T16:20:37.901Z,60.03
2022-12-16T16:23:23.826Z,54.03
2022-12-16T16:26:09.897Z,57.23
2022-12-16T16:28:56.026Z,58.93
2022-12-16T16:31:43.524Z,53.97
2022-12-16T16:34:29.914Z,65.03
2022-12-16T16:37:17.105Z,52.20
2022-12-16T16:40:03.799Z,60.07
2022-12-16T16:42:49.965Z,55.00
2022-12-16T16:45:35.941Z,50.27
2022-12-16T16:48:25.585Z,61.50
2022-12-16T16:51:14.583Z,51.60
2022-12-16T16:54:00.610Z,57.30
2022-12-16T16:56:47.174Z,51.40
2022-12-16T16:59:33.062Z,49.87
2022-12-16T17:02:19.217Z,59.37
2022-12-16T17:05:06.713Z,50.50
2022-12-16T17:07:54.112Z,60.40
2022-12-16T17:10:40.367Z,52.17
2022-12-16T17:13:28.497Z,47.03
2022-12-16T17:16:14.177Z,57.80
2022-12-16T17:19:00.434Z,47.43
2022-12-16T17:21:48.020Z,51.77
2022-12-16T17:24:34.033Z,50.13
2022-12-16T17:27:26.657Z,47.93
2022-12-16T17:30:12.830Z,54.80
2022-12-16T17:32:58.814Z,46.73
2022-12-16T17:35:44.640Z,53.80
2022-12-16T17:38:32.292Z,54.57
2022-12-16T17:41:18.355Z,56.90
2022-12-16T17:44:04.233Z,55.47
2022-12-16T17:46:50.083Z,56.30
2022-12-16T17:49:41.392Z,53.43
2022-12-16T17:52:27.432Z,54.33
2022-12-16T17:55:14.936Z,54.97
2022-12-16T17:58:01.168Z,56.30
2022-12-16T18:00:46.939Z,53.83
2022-12-16T18:03:33.395Z,58.23
2022-12-16T18:06:19.541Z,59.70
2022-12-16T18:09:05.302Z,57.10
2022-12-16T18:11:52.851Z,56.50
2022-12-16T18:14:38.797Z,51.50
2022-12-16T18:17:24.633Z,53.13
2022-12-16T18:20:10.720Z,54.00
2022-12-16T18:22:52.970Z,51.57
2022-12-16T18:25:39.141Z,53.20
2022-12-16T18:28:26.945Z,54.53
2022-12-16T18:31:13.068Z,53.30
2022-12-16T18:33:58.910Z,54.17
2022-12-16T18:36:44.340Z,53.03
2022-12-16T18:39:30.319Z,53.63
2022-12-16T18:42:16.289Z,52.03
2022-12-16T18:45:03.847Z,52.77
2022-12-16T18:47:49.773Z,52.63
2022-12-16T18:50:37.957Z,52.17
2022-12-16T18:53:24.584Z,47.10
2022-12-16T18:56:18.231Z,48.80
2022-12-16T18:59:03.952Z,48.53
2022-12-16T19:01:51.631Z,49.63
2022-12-16T19:04:37.964Z,49.53
2022-12-16T19:07:23.808Z,47.53
2022-12-16T19:10:09.780Z,47.67
2022-12-16T19:12:55.829Z,47.67
2022-12-16T19:15:42.022Z,46.00
2022-12-16T19:18:30.775Z,46.67
2022-12-16T19:21:17.238Z,46.90
2022-12-16T19:24:03.051Z,47.00
2022-12-16T19:26:49.314Z,47.73
2022-12-16T19:29:36.083Z,46.73
2022-12-16T19:32:22.089Z,46.80
2022-12-16T19:35:09.412Z,45.43
2022-12-16T19:37:55.425Z,45.43
2022-12-16T19:40:43.174Z,46.27
2022-12-16T19:43:29.015Z,46.37
2022-12-16T19:46:14.949Z,47.00
2022-12-16T19:49:00.909Z,47.70
2022-12-16T19:51:48.542Z,47.67
2022-12-16T19:54:34.410Z,47.07
2022-12-16T19:57:20.584Z,45.37
2022-12-16T20:00:17.991Z,45.90
2022-12-16T20:03:03.819Z,45.53
2022-12-16T20:05:49.961Z,47.77
2022-12-16T20:08:37.411Z,45.40
2022-12-16T20:11:24.027Z,48.60
2022-12-16T20:14:11.499Z,48.40
2022-12-16T20:16:57.469Z,45.83
2022-12-16T20:19:42.737Z,46.70
2022-12-16T20:22:29.142Z,46.93
2022-12-16T20:25:17.429Z,49.40
2022-12-16T20:28:23.221Z,48.33
2022-12-16T20:31:10.903Z,50.13
2022-12-16T20:34:02.732Z,48.37
2022-12-16T20:36:49.584Z,49.50
2022-12-16T20:39:35.356Z,51.43
2022-12-16T20:42:22.928Z,53.17
2022-12-16T20:45:08.842Z,52.93
2022-12-16T20:47:56.441Z,50.07
2022-12-16T20:50:42.438Z,49.73
2022-12-16T20:53:28.599Z,54.27
2022-12-16T20:56:14.424Z,52.30
2022-12-16T20:59:01.953Z,54.00
2022-12-16T21:02:14.661Z,51.70
2022-12-16T21:04:53.822Z,50.30
2022-12-16T21:07:41.030Z,51.63
2022-12-16T21:10:27.481Z,50.00
2022-12-16T21:13:13.377Z,50.57
2022-12-16T21:16:00.697Z,50.50
2022-12-16T21:18:46.624Z,49.50
2022-12-16T21:21:32.583Z,48.17
2022-12-16T21:24:18.821Z,50.53
2022-12-16T21:27:20.261Z,49.47
2022-12-16T21:30:06.908Z,50.03
2022-12-16T21:32:55.149Z,47.07
2022-12-16T21:35:42.735Z,49.20
2022-12-16T21:38:28.572Z,46.30
2022-12-16T21:41:14.977Z,48.20
2022-12-16T21:44:00.902Z,48.03
2022-12-16T21:46:46.693Z,48.60
2022-12-16T21:49:34.204Z,47.80
2022-12-16T21:52:20.056Z,47.03
2022-12-16T21:55:05.830Z,45.77
2022-12-16T22:01:00.597Z,44.80
2022-12-16T22:03:52.527Z,45.27
2022-12-16T22:06:45.463Z,45.37
2022-12-16T22:09:34.309Z,44.70
2022-12-16T22:12:20.350Z,46.13
2022-12-16T22:15:06.458Z,46.03
2022-12-16T22:17:58.063Z,46.00
2022-12-16T22:20:44.694Z,45.57
2022-12-16T22:23:37.595Z,44.70
2022-12-16T22:26:23.865Z,48.93
2022-12-16T22:29:11.445Z,48.60
2022-12-16T22:31:57.728Z,48.17
2022-12-16T22:34:43.470Z,50.23
2022-12-16T22:37:29.683Z,48.53
2022-12-16T22:40:16.974Z,48.43
2022-12-16T22:43:02.852Z,51.13
2022-12-16T22:45:48.922Z,49.90
2022-12-16T22:48:35.095Z,51.00
2022-12-16T22:51:21.207Z,52.17
2022-12-16T22:54:07.777Z,54.10
2022-12-16T22:56:56.328Z,53.67
2022-12-16T22:59:42.283Z,52.90
2022-12-16T23:02:28.184Z,51.60
2022-12-16T23:05:14.215Z,53.77
2022-12-16T23:08:00.019Z,55.70
2022-12-16T23:10:46.039Z,55.90
2022-12-16T23:13:33.641Z,56.40
2022-12-16T23:16:19.780Z,58.63
2022-12-16T23:19:05.992Z,59.87
2022-12-16T23:22:00.426Z,59.33
2022-12-16T23:24:46.358Z,59.77
2022-12-16T23:27:32.289Z,60.67
2022-12-16T23:30:19.560Z,58.53
2022-12-16T23:33:05.690Z,60.47
2022-12-16T23:35:51.989Z,59.70
2022-12-16T23:38:38.216Z,61.10
2022-12-16T23:41:24.065Z,60.83
2022-12-16T23:44:09.909Z,59.43
2022-12-16T23:46:57.408Z,59.70
2022-12-16T23:49:43.304Z,57.87
2022-12-16T23:52:29.182Z,59.77
2022-12-16T23:55:15.241Z,58.73
2022-12-16T23:58:01.238Z,59.67
